Time;durP1;ratioP1;P1;durP2;ratioP2;P2;SDS_P1;SDS_P2;PMS_P1;PMS_P2;Temp;Humidity;BMP_temperature;BMP_pressure;BME280_temperature;BME280_humidity;BME280_pressure;Samples;Min_cycle;Max_cycle;Signal;HPM_P1;HPM_P2
2023/08/01 00:00:13;;;;;;;7.82;3.28;;;;;;;22.70;81.04;97306.81;5079983;28;20055;-77
2023/08/01 00:02:57;;;;;;;4.68;3.20;;;;;;;22.42;80.57;97293.78;5075537;28;20031;-76
2023/08/01 00:05:47;;;;;;;5.38;2.80;;;;;;;22.79;79.51;97307.59;5077644;28;20038;-76
2023/08/01 00:08:31;;;;;;;7.40;3.08;;;;;;;22.39;80.41;97312.00;5076245;28;20054;-76
2023/08/01 00:11:16;;;;;;;5.30;2.85;;;;;;;22.82;79.24;97306.97;5072768;28;20448;-76
2023/08/01 00:14:01;;;;;;;7.45;3.35;;;;;;;22.10;80.93;97321.44;5076493;28;20051;-76
2023/08/01 00:16:45;;;;;;;7.32;4.07;;;;;;;22.37;80.78;97310.75;5075193;28;20043;-76
2023/08/01 00:19:28;;;;;;;;;;;;;;;22.35;81.10;97311.06;5079060;28;20043;-76
2023/08/01 00:22:13;;;;;;;7.65;3.92;;;;;;;22.19;81.41;97308.09;5082814;28;20364;-75
2023/08/01 00:24:56;;;;;;;9.75;3.80;;;;;;;22.41;81.23;97301.00;5075019;28;20047;-76
2023/08/01 00:27:40;;;;;;;5.03;3.88;;;;;;;22.96;79.26;97307.56;5075840;28;20329;-76
2023/08/01 00:30:25;;;;;;;11.50;4.30;;;;;;;22.60;80.15;97316.75;5078016;28;20059;-77
2023/08/01 00:33:08;;;;;;;9.13;3.78;;;;;;;22.89;79.45;97309.94;5079152;28;20095;-75
2023/08/01 00:35:55;;;;;;;7.35;4.03;;;;;;;22.64;79.98;97308.88;5074392;28;20107;-76
2023/08/01 00:38:41;;;;;;;6.30;3.70;;;;;;;22.16;80.69;97313.25;5077458;28;20493;-76
2023/08/01 00:41:25;;;;;;;7.88;4.28;;;;;;;22.16;80.70;97308.72;5075444;28;20406;-76
2023/08/01 00:44:09;;;;;;;8.93;3.80;;;;;;;22.14;80.85;97307.44;5079261;28;20050;-76
2023/08/01 00:46:53;;;;;;;6.75;3.83;;;;;;;22.12;80.92;97310.44;5079824;28;21898;-76
2023/08/01 00:49:38;;;;;;;8.55;4.38;;;;;;;22.29;80.47;97314.22;5078459;28;20078;-77
2023/08/01 00:52:22;;;;;;;10.02;3.40;;;;;;;22.03;81.50;97318.44;5084016;28;20075;-77
2023/08/01 00:55:07;;;;;;;5.22;3.15;;;;;;;21.75;82.71;97304.56;5086234;28;20497;-76
2023/08/01 00:57:53;;;;;;;5.55;2.95;;;;;;;21.67;82.61;97304.22;5080592;28;20114;-77
2023/08/01 01:00:38;;;;;;;7.35;3.60;;;;;;;21.65;82.57;97306.41;5081525;28;20051;-77
2023/08/01 01:03:23;;;;;;;8.18;2.80;;;;;;;21.85;82.71;97309.59;5077686;28;20043;-76
2023/08/01 01:06:15;;;;;;;7.00;3.13;;;;;;;21.45;82.78;97307.75;5075166;28;20094;-76
2023/08/01 01:09:00;;;;;;;7.65;3.10;;;;;;;21.58;83.21;97307.94;5081617;28;20531;-75
2023/08/01 01:11:46;;;;;;;7.93;3.13;;;;;;;21.46;83.82;97312.00;5082617;28;20402;-77
2023/08/01 01:14:30;;;;;;;7.53;2.78;;;;;;;21.26;84.68;97303.44;5077453;28;20047;-76
2023/08/01 01:17:14;;;;;;;8.02;2.80;;;;;;;22.00;83.26;97299.59;5080923;28;20350;-76
2023/08/01 01:19:58;;;;;;;15.45;4.75;;;;;;;22.17;81.76;97304.94;5083480;28;20052;-76
2023/08/01 01:22:43;;;;;;;7.35;2.72;;;;;;;21.87;82.54;97299.41;5078487;28;20138;-77
2023/08/01 01:25:28;;;;;;;4.82;2.78;;;;;;;22.29;81.85;97295.50;5079107;28;20055;-77
2023/08/01 01:28:14;;;;;;;6.82;3.08;;;;;;;22.35;81.88;97318.31;5084359;28;20497;-76
2023/08/01 01:30:59;;;;;;;8.45;3.30;;;;;;;22.08;82.05;97312.94;5075100;28;20501;-76
2023/08/01 01:33:43;;;;;;;7.38;2.90;;;;;;;22.32;81.54;97326.97;5076811;28;20930;-76
2023/08/01 01:36:27;;;;;;;7.18;3.35;;;;;;;22.21;81.79;97326.50;5084851;28;20077;-76
2023/08/01 01:39:11;;;;;;;7.22;3.28;;;;;;;22.63;81.72;97326.03;5077732;28;20440;-77
2023/08/01 01:41:55;;;;;;;6.70;3.05;;;;;;;22.42;82.82;97317.84;5078887;28;20093;-78
2023/08/01 01:44:39;;;;;;;9.30;3.22;;;;;;;22.09;83.49;97319.88;5080689;28;20393;-77
2023/08/01 01:47:23;;;;;;;5.93;3.17;;;;;;;22.15;83.25;97322.38;5074389;28;20036;-76
2023/08/01 01:50:07;;;;;;;6.35;3.22;;;;;;;22.65;82.23;97308.56;5082056;28;20097;-76
2023/08/01 01:52:51;;;;;;;10.98;3.28;;;;;;;22.20;83.25;97324.88;5075238;28;20067;-76
2023/08/01 01:55:35;;;;;;;10.00;3.08;;;;;;;22.13;83.72;97324.59;5077114;28;20110;-76
2023/08/01 01:58:19;;;;;;;7.15;2.92;;;;;;;22.04;83.81;97314.69;5077171;28;20166;-77
2023/08/01 02:01:03;;;;;;;9.82;3.63;;;;;;;22.16;83.42;97314.06;5079611;28;20039;-77
2023/08/01 02:03:47;;;;;;;9.82;2.88;;;;;;;21.78;83.54;97322.63;5077631;28;20090;-77
2023/08/01 02:06:31;;;;;;;8.20;2.95;;;;;;;22.24;82.29;97315.16;5077711;28;20048;-76
2023/08/01 02:09:15;;;;;;;8.25;3.00;;;;;;;22.59;81.50;97325.88;5085060;28;20046;-76
2023/08/01 02:11:59;;;;;;;5.10;2.90;;;;;;;22.11;81.96;97324.91;5081383;28;20513;-76
2023/08/01 02:14:43;;;;;;;6.18;2.80;;;;;;;22.09;82.06;97319.88;5075913;28;20055;-76
2023/08/01 02:17:27;;;;;;;7.97;3.10;;;;;;;22.67;80.74;97313.59;5077754;28;20093;-76
2023/08/01 02:20:11;;;;;;;8.90;2.80;;;;;;;22.58;81.04;97318.94;5079740;28;20562;-77
2023/08/01 02:22:55;;;;;;;9.02;3.30;;;;;;;22.16;82.22;97308.72;5080091;28;20047;-77
2023/08/01 02:25:40;;;;;;;6.28;3.45;;;;;;;22.34;81.75;97314.84;5079667;28;20097;-76
2023/08/01 02:28:24;;;;;;;10.65;2.83;;;;;;;22.77;80.52;97309.78;5079584;28;20169;-77
2023/08/01 02:31:08;;;;;;;14.68;3.20;;;;;;;22.83;80.12;97308.53;5082046;28;20729;-77
2023/08/01 02:33:52;;;;;;;9.07;3.47;;;;;;;22.50;80.82;97301.03;5078888;28;20063;-77
2023/08/01 02:36:36;;;;;;;9.68;3.25;;;;;;;21.88;81.68;97302.88;5076593;28;20510;-77
2023/08/01 02:39:20;;;;;;;10.10;3.60;;;;;;;22.20;81.48;97315.00;5077871;28;20575;-76
2023/08/01 02:42:04;;;;;;;11.13;3.75;;;;;;;22.25;81.50;97306.81;5082497;28;20090;-77
2023/08/01 02:44:47;;;;;;;6.97;3.20;;;;;;;22.30;81.60;97308.56;5082680;28;20517;-76
2023/08/01 02:47:32;;;;;;;7.85;3.63;;;;;;;22.65;81.17;97300.56;5080903;28;20061;-76
2023/08/01 02:50:15;;;;;;;9.07;3.00;;;;;;;23.30;79.24;97301.66;5081104;28;20107;-76
2023/08/01 02:52:59;;;;;;;10.88;4.00;;;;;;;22.48;80.16;97301.34;5074540;28;20551;-76
2023/08/01 02:55:46;;;;;;;8.63;3.72;;;;;;;21.93;80.74;97311.53;5074932;28;20097;-76
2023/08/01 02:58:30;;;;;;;12.98;3.15;;;;;;;21.80;81.67;97307.88;5077150;28;20059;-76
2023/08/01 03:01:14;;;;;;;8.40;3.35;;;;;;;22.14;80.53;97318.13;5078097;28;20042;-77
2023/08/01 03:03:58;;;;;;;9.25;3.67;;;;;;;22.43;79.98;97316.75;5079554;28;20035;-76
2023/08/01 03:06:42;;;;;;;8.02;3.35;;;;;;;22.88;79.47;97307.56;5079358;28;20085;-76
2023/08/01 03:09:26;;;;;;;12.27;3.63;;;;;;;23.18;78.40;97313.78;5079238;28;20047;-76
2023/08/01 03:12:10;;;;;;;6.47;3.08;;;;;;;22.51;78.79;97307.94;5081557;28;20040;-76
2023/08/01 03:14:54;;;;;;;7.32;3.03;;;;;;;23.34;77.42;97300.69;5075721;28;20119;-77
2023/08/01 03:17:38;;;;;;;6.50;3.20;;;;;;;23.53;75.48;97308.31;5075635;28;20563;-76
2023/08/01 03:20:22;;;;;;;11.23;3.05;;;;;;;23.04;76.40;97305.19;5081385;28;20060;-76
2023/08/01 03:23:06;;;;;;;9.13;3.08;;;;;;;23.76;74.74;97305.34;5076352;28;20046;-76
2023/08/01 03:25:50;;;;;;;9.07;3.03;;;;;;;23.22;75.60;97304.03;5077323;28;20087;-77
2023/08/01 03:28:34;;;;;;;6.97;3.10;;;;;;;22.93;75.94;97297.50;5079360;28;20101;-77
2023/08/01 03:31:18;;;;;;;5.68;3.17;;;;;;;23.09;75.89;97294.31;5075587;28;20039;-76
2023/08/01 03:34:02;;;;;;;7.97;3.33;;;;;;;23.24;75.31;97288.44;5075347;28;20089;-77
2023/08/01 03:36:46;;;;;;;7.65;3.40;;;;;;;22.99;75.49;97292.75;5077408;28;20467;-76
2023/08/01 03:39:29;;;;;;;8.30;3.03;;;;;;;23.08;75.59;97287.38;5072985;28;20102;-76
2023/08/01 03:42:13;;;;;;;8.52;3.10;;;;;;;23.24;74.84;97280.41;5073358;28;20113;-76
2023/08/01 03:44:58;;;;;;;10.35;3.30;;;;;;;22.84;75.55;97275.34;5074002;28;20077;-76
2023/08/01 03:47:41;;;;;;;6.57;3.05;;;;;;;23.39;74.65;97281.00;5081283;28;20078;-76
2023/08/01 03:50:26;;;;;;;8.65;2.83;;;;;;;23.32;74.64;97291.41;5072116;28;20086;-76
2023/08/01 03:53:10;;;;;;;7.88;3.20;;;;;;;23.28;74.30;97275.19;5075972;28;20074;-77
2023/08/01 03:55:54;;;;;;;7.90;3.00;;;;;;;22.76;75.30;97278.81;5076816;28;20442;-76
2023/08/01 03:58:38;;;;;;;12.02;2.90;;;;;;;22.78;75.30;97284.63;5076839;28;20054;-76
2023/08/01 04:01:22;;;;;;;6.85;3.30;;;;;;;22.75;75.60;97286.06;5078812;28;20050;-76
2023/08/01 04:04:07;;;;;;;10.88;3.75;;;;;;;23.13;74.77;97292.56;5081753;28;20179;-75
2023/08/01 04:06:50;;;;;;;9.70;3.70;;;;;;;22.79;75.86;97286.19;5077050;28;20122;-75
2023/08/01 04:09:34;;;;;;;15.25;3.97;;;;;;;22.78;76.21;97281.94;5077390;28;20466;-76
2023/08/01 04:12:18;;;;;;;14.60;4.43;;;;;;;22.88;77.00;97291.53;5078322;28;20078;-75
2023/08/01 04:15:03;;;;;;;10.07;4.18;;;;;;;22.42;78.74;97286.53;5073855;28;20115;-76
2023/08/01 04:17:47;;;;;;;13.25;4.05;;;;;;;21.37;81.60;97287.94;5077999;28;20067;-76
2023/08/01 04:20:32;;;;;;;12.25;3.78;;;;;;;22.31;80.23;97283.41;5077743;28;20111;-75
2023/08/01 04:23:17;;;;;;;14.63;3.83;;;;;;;22.09;80.17;97290.47;5080368;28;20048;-76
2023/08/01 04:26:01;;;;;;;7.57;3.25;;;;;;;22.15;81.17;97295.66;5074024;28;20068;-77
2023/08/01 04:28:46;;;;;;;10.68;3.45;;;;;;;22.00;82.31;97313.72;5080193;28;20055;-75
2023/08/01 04:31:30;;;;;;;10.95;3.70;;;;;;;22.40;81.61;97302.91;5076574;28;20087;-76
2023/08/01 04:34:14;;;;;;;7.63;3.60;;;;;;;21.78;83.73;97310.06;5078148;28;20035;-76
2023/08/01 04:36:58;;;;;;;11.10;3.75;;;;;;;22.05;83.16;97313.59;5077079;28;20054;-77
2023/08/01 04:39:42;;;;;;;7.07;3.45;;;;;;;22.11;83.68;97316.91;5080146;28;20105;-76
2023/08/01 04:42:26;;;;;;;9.43;4.28;;;;;;;21.86;84.38;97302.41;5080468;28;20082;-76
2023/08/01 04:45:10;;;;;;;10.18;4.88;;;;;;;22.44;83.10;97297.69;5082954;28;20128;-76
2023/08/01 04:47:54;;;;;;;8.75;4.43;;;;;;;22.25;83.50;97303.38;5078297;28;20070;-77
2023/08/01 04:50:38;;;;;;;10.55;4.85;;;;;;;21.95;84.45;97303.19;5079094;28;20174;-75
2023/08/01 04:53:22;;;;;;;9.98;4.65;;;;;;;21.69;85.40;97306.59;5079455;28;20043;-76
2023/08/01 04:56:06;;;;;;;9.63;3.78;;;;;;;21.90;84.16;97295.31;5076248;28;20047;-75
2023/08/01 04:58:50;;;;;;;8.73;4.00;;;;;;;22.28;83.49;97301.94;5074831;28;20094;-75
2023/08/01 05:01:34;;;;;;;8.90;4.07;;;;;;;21.73;84.71;97296.88;5075192;28;20090;-76
2023/08/01 05:04:18;;;;;;;8.50;3.72;;;;;;;21.55;85.57;97307.47;5073152;28;20035;-76
2023/08/01 05:07:02;;;;;;;6.72;3.47;;;;;;;21.42;86.54;97321.72;5073457;28;20143;-76
2023/08/01 05:09:46;;;;;;;7.72;3.58;;;;;;;21.86;85.12;97315.75;5072939;28;20083;-76
2023/08/01 05:12:30;;;;;;;10.07;3.40;;;;;;;21.70;85.62;97310.84;5072632;28;20128;-75
2023/08/01 05:15:14;;;;;;;10.18;3.10;;;;;;;21.37;87.15;97327.19;5076084;28;20027;-75
2023/08/01 05:17:58;;;;;;;5.75;2.53;;;;;;;22.11;86.14;97317.66;5072990;28;20040;-74
2023/08/01 05:20:42;;;;;;;9.38;3.10;;;;;;;22.02;86.04;97326.75;5073796;28;20040;-76
2023/08/01 05:23:27;;;;;;;8.32;3.05;;;;;;;22.19;85.79;97332.13;5074681;28;20028;-76
2023/08/01 05:26:11;;;;;;;4.18;2.90;;;;;;;21.69;87.50;97339.41;5069246;28;20054;-76
2023/08/01 05:28:55;;;;;;;5.57;2.80;;;;;;;21.58;87.73;97331.97;5071342;28;20113;-76
2023/08/01 05:31:38;;;;;;;6.55;2.45;;;;;;;22.42;86.41;97337.31;5075020;28;20107;-76
2023/08/01 05:34:23;;;;;;;4.20;2.47;;;;;;;22.29;85.79;97339.06;5078414;28;20040;-77
2023/08/01 05:37:07;;;;;;;5.25;2.50;;;;;;;21.67;87.17;97351.50;5080357;28;20122;-77
2023/08/01 05:39:51;;;;;;;4.38;2.42;;;;;;;22.23;85.96;97345.66;5074953;28;20051;-75
2023/08/01 05:42:35;;;;;;;7.75;2.45;;;;;;;22.14;86.31;97351.00;5075231;28;20038;-75
2023/08/01 05:45:19;;;;;;;7.38;2.35;;;;;;;22.53;85.53;97351.19;5070264;28;20493;-76
2023/08/01 05:48:03;;;;;;;5.07;2.63;;;;;;;22.23;85.75;97353.69;5072391;28;20129;-76
2023/08/01 05:50:48;;;;;;;3.95;2.45;;;;;;;21.97;86.38;97354.41;5080162;28;20133;-75
2023/08/01 05:53:32;;;;;;;4.93;2.42;;;;;;;21.77;85.89;97356.56;5081157;28;20044;-75
2023/08/01 05:56:16;;;;;;;7.47;2.58;;;;;;;22.07;85.62;97353.31;5079754;28;20066;-75
2023/08/01 05:59:00;;;;;;;7.65;2.92;;;;;;;22.36;84.47;97352.72;5080609;28;20101;-75
2023/08/01 06:01:44;;;;;;;6.90;2.63;;;;;;;22.37;84.12;97364.22;5079605;28;20047;-75
2023/08/01 06:04:28;;;;;;;9.35;3.00;;;;;;;21.58;85.73;97369.34;5078735;28;20044;-76
2023/08/01 06:07:12;;;;;;;10.07;3.30;;;;;;;21.74;84.45;97348.41;5082477;28;20105;-76
2023/08/01 06:09:56;;;;;;;9.55;3.42;;;;;;;22.10;83.03;97364.19;5078618;28;20047;-76
2023/08/01 06:12:40;;;;;;;10.13;3.45;;;;;;;21.96;84.02;97360.84;5075147;28;20090;-76
2023/08/01 06:15:25;;;;;;;9.60;3.67;;;;;;;21.92;83.63;97367.91;5082127;28;20039;-76
2023/08/01 06:18:10;;;;;;;11.25;3.38;;;;;;;22.76;81.82;97367.88;5082283;28;20051;-76
2023/08/01 06:20:54;;;;;;;9.18;3.45;;;;;;;22.58;81.72;97372.41;5075636;28;20043;-76
2023/08/01 06:23:38;;;;;;;10.93;3.95;;;;;;;22.16;82.88;97377.38;5075454;28;20473;-75
2023/08/01 06:26:22;;;;;;;10.75;3.65;;;;;;;23.14;81.15;97387.78;5064730;28;20048;-74
2023/08/01 06:29:06;;;;;;;3.97;2.90;;;;;;;23.13;80.18;97393.47;5073223;28;20051;-75
2023/08/01 06:31:50;;;;;;;10.00;3.50;;;;;;;23.14;80.28;97385.09;5075953;28;20046;-75
2023/08/01 06:34:34;;;;;;;12.55;4.05;;;;;;;22.54;80.77;97384.84;5073627;28;20513;-77
2023/08/01 06:37:18;;;;;;;12.55;4.32;;;;;;;22.69;80.81;97394.28;5079124;28;20126;-76
2023/08/01 06:40:03;;;;;;;11.32;3.92;;;;;;;22.95;80.82;97390.81;5080538;28;20047;-76
2023/08/01 06:42:46;;;;;;;11.15;3.90;;;;;;;23.33;79.73;97387.47;5078020;28;20097;-78
2023/08/01 06:45:30;;;;;;;9.27;3.63;;;;;;;23.63;78.72;97382.16;5076118;28;20051;-78
2023/08/01 06:48:14;;;;;;;9.77;3.60;;;;;;;23.21;78.42;97389.97;5072984;28;20043;-79
2023/08/01 06:50:58;;;;;;;10.27;3.33;;;;;;;22.49;80.03;97401.81;5076807;28;20059;-77
2023/08/01 06:53:42;;;;;;;13.90;3.97;;;;;;;23.40;78.33;97403.03;5076797;28;20554;-77
2023/08/01 06:56:26;;;;;;;8.57;3.25;;;;;;;23.17;77.92;97397.09;5075756;28;20082;-78
2023/08/01 06:59:10;;;;;;;;;;;;;;;23.08;79.28;97402.44;5069559;28;20051;-78
2023/08/01 07:01:55;;;;;;;11.82;3.92;;;;;;;23.15;78.46;97394.72;5078247;28;19918;-77
2023/08/01 07:04:39;;;;;;;11.20;3.55;;;;;;;22.97;78.99;97377.91;5079649;28;20085;-77
2023/08/01 07:07:23;;;;;;;12.80;3.50;;;;;;;23.41;78.60;97401.94;5072108;28;20075;-77
2023/08/01 07:10:08;;;;;;;13.57;3.63;;;;;;;23.28;78.88;97410.94;5077031;28;20056;-76
2023/08/01 07:12:52;;;;;;;9.23;3.50;;;;;;;23.04;79.35;97404.97;5077360;28;20039;-77
2023/08/01 07:15:36;;;;;;;15.80;4.15;;;;;;;22.64;80.61;97413.97;5074861;28;20081;-77
2023/08/01 07:18:20;;;;;;;9.93;4.30;;;;;;;23.11;80.16;97409.84;5077765;28;20042;-77
2023/08/01 07:21:04;;;;;;;11.18;4.47;;;;;;;23.61;79.09;97413.06;5078141;28;20055;-78
2023/08/01 07:23:49;;;;;;;8.05;3.75;;;;;;;23.87;79.00;97417.50;5070337;28;20542;-77
2023/08/01 07:26:33;;;;;;;8.85;3.85;;;;;;;23.85;77.92;97412.47;5077568;28;20417;-77
2023/08/01 07:29:17;;;;;;;9.93;3.03;;;;;;;23.52;77.36;97429.16;5078229;28;20539;-77
2023/08/01 07:32:00;;;;;;;8.32;3.42;;;;;;;23.46;78.03;97420.50;5072900;28;20048;-78
2023/08/01 07:34:44;;;;;;;9.55;3.00;;;;;;;23.45;78.33;97420.81;5075253;28;20075;-78
2023/08/01 07:37:28;;;;;;;9.98;3.33;;;;;;;23.92;76.96;97420.00;5075589;28;20114;-78
2023/08/01 07:40:12;;;;;;;8.73;3.45;;;;;;;23.76;77.43;97422.44;5074482;28;20048;-77
2023/08/01 07:42:59;;;;;;;8.32;3.50;;;;;;;23.52;77.05;97429.91;5077159;28;20110;-77
2023/08/01 07:45:43;;;;;;;12.45;4.00;;;;;;;23.60;77.03;97432.91;5074835;28;20043;-77
2023/08/01 07:48:27;;;;;;;9.43;3.25;;;;;;;23.81;75.24;97447.19;5071805;28;20145;-76
2023/08/01 07:51:11;;;;;;;10.98;4.30;;;;;;;22.82;77.53;97441.50;5075950;28;20051;-77
2023/08/01 07:53:56;;;;;;;10.50;3.40;;;;;;;23.43;76.67;97431.84;5072700;28;20047;-77
2023/08/01 07:56:40;;;;;;;10.40;3.33;;;;;;;23.28;76.52;97435.81;5073403;28;20040;-77
2023/08/01 07:59:24;;;;;;;8.77;3.33;;;;;;;23.20;76.14;97429.34;5077398;28;20453;-77
2023/08/01 08:02:08;;;;;;;8.30;3.17;;;;;;;23.48;75.49;97437.03;5076515;28;20043;-77
2023/08/01 08:04:52;;;;;;;11.43;3.70;;;;;;;23.96;74.69;97429.75;5080041;28;20047;-78
2023/08/01 08:07:37;;;;;;;9.80;2.67;;;;;;;23.20;74.75;97437.38;5080354;28;20371;-78
2023/08/01 08:10:21;;;;;;;10.80;3.20;;;;;;;23.25;75.41;97437.25;5072667;28;20524;-77
2023/08/01 08:13:05;;;;;;;7.35;3.22;;;;;;;23.72;75.10;97432.25;5076020;28;20043;-78
2023/08/01 08:15:49;;;;;;;10.55;3.78;;;;;;;24.18;72.45;97441.34;5073477;28;20089;-78
2023/08/01 08:18:33;;;;;;;10.88;3.08;;;;;;;23.77;73.84;97453.47;5073888;28;20047;-78
2023/08/01 08:21:17;;;;;;;8.73;2.92;;;;;;;24.71;72.23;97432.16;5068005;28;20052;-78
2023/08/01 08:24:01;;;;;;;6.68;3.28;;;;;;;24.44;72.47;97445.00;5079293;28;20116;-78
2023/08/01 08:26:45;;;;;;;7.07;3.15;;;;;;;24.95;71.82;97440.34;5080173;28;20051;-78
2023/08/01 08:29:31;;;;;;;6.28;3.03;;;;;;;24.53;71.83;97448.38;5073764;28;20393;-79
2023/08/01 08:32:15;;;;;;;10.52;3.17;;;;;;;25.00;70.96;97443.97;5075472;28;20089;-79
2023/08/01 08:34:59;;;;;;;10.00;3.50;;;;;;;25.21;70.28;97455.47;5072874;28;20501;-79
2023/08/01 08:37:43;;;;;;;6.60;3.00;;;;;;;25.15;69.81;97451.38;5074279;28;20110;-78
2023/08/01 08:40:27;;;;;;;12.45;2.85;;;;;;;24.43;71.29;97459.50;5071368;28;20125;-79
2023/08/01 08:43:12;;;;;;;18.23;3.63;;;;;;;25.22;70.21;97453.53;5069681;28;20102;-78
2023/08/01 08:45:59;;;;;;;9.05;3.55;;;;;;;24.82;70.12;97449.47;5077583;28;20351;-79
2023/08/01 08:48:46;;;;;;;9.27;3.00;;;;;;;24.33;71.51;97456.06;5075613;28;20493;-78
2023/08/01 08:51:31;;;;;;;6.93;2.80;;;;;;;23.73;73.17;97463.28;5074148;28;20043;-78
2023/08/01 08:54:16;;;;;;;11.75;3.65;;;;;;;23.72;74.33;97467.84;5070080;28;20106;-78
2023/08/01 08:57:01;;;;;;;13.90;4.20;;;;;;;24.19;74.62;97461.69;5076220;28;20198;-78
2023/08/01 08:59:47;;;;;;;6.72;3.45;;;;;;;24.13;75.88;97473.69;5069162;28;20059;-78
2023/08/01 09:02:32;;;;;;;11.60;3.50;;;;;;;23.76;77.28;97482.16;5074033;28;20047;-78
2023/08/01 09:05:17;;;;;;;9.57;3.33;;;;;;;23.88;77.03;97484.19;5074283;28;20051;-78
2023/08/01 09:08:06;;;;;;;9.30;3.25;;;;;;;24.30;76.42;97482.78;5073275;28;20075;-78
2023/08/01 09:10:50;;;;;;;7.65;3.00;;;;;;;25.16;74.62;97468.28;5081112;28;20393;-79
2023/08/01 09:13:35;;;;;;;9.48;3.65;;;;;;;25.39;73.43;97484.84;5078947;28;20073;-79
2023/08/01 09:16:19;;;;;;;8.13;3.05;;;;;;;25.44;72.37;97484.63;5082109;28;20047;-83
2023/08/01 09:19:05;;;;;;;7.25;2.75;;;;;;;25.15;72.39;97488.19;5084915;28;20077;-81
2023/08/01 09:21:49;;;;;;;8.95;3.05;;;;;;;24.45;73.41;97494.81;5081743;28;20043;-81
2023/08/01 09:24:34;;;;;;;10.55;3.40;;;;;;;23.97;74.97;97502.88;5077402;28;20066;-81
2023/08/01 09:27:18;;;;;;;7.82;3.47;;;;;;;23.72;75.29;97494.63;5087152;28;20098;-81
2023/08/01 09:30:16;;;;;;;13.45;3.65;;;;;;;23.29;76.43;97495.50;5076181;28;20236;-80
2023/08/01 09:33:00;;;;;;;8.70;4.07;;;;;;;23.98;75.37;97495.66;5079600;28;20151;-79
2023/08/01 09:35:45;;;;;;;8.32;3.78;;;;;;;24.24;75.37;97492.88;5079790;28;20047;-79
2023/08/01 09:38:34;;;;;;;7.35;3.63;;;;;;;24.12;75.31;97503.50;5077821;28;20197;-77
2023/08/01 09:41:19;;;;;;;10.88;3.47;;;;;;;23.48;75.69;97508.53;5074266;28;20410;-79
2023/08/01 09:44:03;;;;;;;11.70;4.18;;;;;;;23.93;74.64;97502.75;5077588;28;20058;-79
2023/08/01 09:47:00;;;;;;;8.88;3.63;;;;;;;24.55;74.04;97510.53;5078020;28;20398;-79
2023/08/01 09:49:50;;;;;;;7.40;3.40;;;;;;;25.14;72.47;97513.47;5075471;28;20122;-78
2023/08/01 09:52:34;;;;;;;13.55;4.22;;;;;;;24.78;71.92;97507.59;5074800;28;20059;-78
2023/08/01 09:55:34;;;;;;;11.57;3.92;;;;;;;24.35;72.32;97507.47;5076951;28;20480;-78
2023/08/01 09:58:22;;;;;;;10.35;3.88;;;;;;;24.81;71.43;97510.41;5082864;28;20071;-77
2023/08/01 10:01:06;;;;;;;8.30;3.75;;;;;;;24.98;71.17;97519.44;5087000;28;20044;-78
2023/08/01 10:03:50;;;;;;;;;;;;;;;25.05;70.55;97517.00;5080626;28;20039;-79
2023/08/01 10:06:38;;;;;;;9.23;3.53;;;;;;;25.81;69.96;97516.19;5075580;28;19923;-79
2023/08/01 10:09:22;;;;;;;10.88;3.58;;;;;;;26.04;68.96;97511.19;5080403;28;20101;-78
2023/08/01 10:12:08;;;;;;;10.90;3.75;;;;;;;25.41;69.31;97512.16;5079477;28;20051;-78
2023/08/01 10:14:53;;;;;;;9.10;3.90;;;;;;;24.65;70.62;97506.69;5075052;28;20097;-78
2023/08/01 10:17:37;;;;;;;7.28;3.47;;;;;;;24.73;70.33;97513.91;5082061;28;20043;-79
2023/08/01 10:20:22;;;;;;;8.90;3.92;;;;;;;24.83;70.38;97511.97;5076913;28;20190;-79
2023/08/01 10:23:08;;;;;;;12.55;3.67;;;;;;;24.42;71.36;97519.63;5078395;28;20034;-78
2023/08/01 10:25:53;;;;;;;6.95;2.72;;;;;;;24.60;70.68;97517.59;5083555;28;20063;-78
2023/08/01 10:28:41;;;;;;;6.10;2.75;;;;;;;25.02;70.49;97516.91;5078652;28;20123;-77
2023/08/01 10:31:26;;;;;;;9.55;2.65;;;;;;;25.43;70.22;97509.91;5080378;28;20146;-76
2023/08/01 10:34:13;;;;;;;7.43;3.55;;;;;;;25.70;68.38;97510.44;5078392;28;20445;-76
2023/08/01 10:36:59;;;;;;;12.40;2.70;;;;;;;26.02;68.31;97510.75;5080349;28;20162;-76
2023/08/01 10:39:43;;;;;;;7.25;2.30;;;;;;;25.07;68.03;97520.19;5078000;28;20050;-76
2023/08/01 10:42:40;;;;;;;6.90;2.38;;;;;;;25.68;67.78;97515.38;5079089;28;20043;-76
2023/08/01 10:45:27;;;;;;;7.43;2.50;;;;;;;25.96;67.36;97512.09;5075695;28;20060;-76
2023/08/01 10:48:11;;;;;;;7.78;3.05;;;;;;;25.32;68.01;97512.22;5075359;28;20063;-76
2023/08/01 10:50:58;;;;;;;6.38;3.10;;;;;;;25.84;68.50;97520.13;5080071;28;20492;-77
2023/08/01 10:53:43;;;;;;;9.73;2.88;;;;;;;26.45;66.99;97521.31;5080019;28;20043;-76
2023/08/01 10:56:28;;;;;;;4.93;2.38;;;;;;;26.00;65.98;97506.81;5076508;28;20036;-78
2023/08/01 10:59:13;;;;;;;6.15;2.42;;;;;;;27.18;64.28;97518.81;5074435;28;20089;-77
2023/08/01 11:02:00;;;;;;;9.48;2.85;;;;;;;27.08;64.01;97510.13;5075214;28;20504;-77
2023/08/01 11:04:44;;;;;;;4.97;2.13;;;;;;;27.37;63.39;97515.50;5078132;28;20055;-77
2023/08/01 11:07:28;;;;;;;5.43;2.33;;;;;;;27.44;63.11;97534.53;5077324;28;21341;-78
2023/08/01 11:10:13;;;;;;;5.18;2.22;;;;;;;26.83;64.79;97530.91;5076603;28;20063;-77
2023/08/01 11:12:59;;;;;;;5.38;2.35;;;;;;;26.96;64.38;97533.59;5069452;28;22155;-77
2023/08/01 11:15:43;;;;;;;6.43;2.80;;;;;;;27.38;63.88;97527.84;5077385;28;20097;-77
2023/08/01 11:18:27;;;;;;;7.25;2.50;;;;;;;27.48;63.18;97535.41;5077558;28;20055;-77
2023/08/01 11:21:11;;;;;;;7.20;2.60;;;;;;;26.64;65.08;97539.56;5074485;28;20043;-77
2023/08/01 11:23:56;;;;;;;10.98;2.85;;;;;;;26.57;64.48;97537.44;5072428;28;20497;-77
2023/08/01 11:26:45;;;;;;;6.47;1.92;;;;;;;26.80;63.59;97523.50;5079529;28;20040;-77
2023/08/01 11:29:30;;;;;;;4.40;1.83;;;;;;;26.64;63.98;97534.97;5073308;28;20097;-77
2023/08/01 11:32:14;;;;;;;7.55;2.40;;;;;;;25.42;65.85;97524.44;5078814;28;20063;-77
2023/08/01 11:34:58;;;;;;;5.65;2.42;;;;;;;26.40;64.98;97543.06;5081173;28;20047;-77
2023/08/01 11:37:42;;;;;;;8.77;2.80;;;;;;;26.91;64.87;97535.38;5077956;28;20067;-76
2023/08/01 11:40:27;;;;;;;4.05;2.45;;;;;;;26.82;63.56;97542.78;5077114;28;20422;-77
2023/08/01 11:43:11;;;;;;;7.03;2.75;;;;;;;28.23;62.36;97540.44;5077687;28;20277;-76
2023/08/01 11:45:58;;;;;;;2.80;1.92;;;;;;;27.94;61.27;97534.31;5071785;28;20083;-77
2023/08/01 11:48:52;;;;;;;5.18;1.90;;;;;;;28.56;61.04;97536.56;5077055;28;20504;-76
2023/08/01 11:51:44;;;;;;;4.75;1.75;;;;;;;27.74;61.24;97536.91;5081698;28;20085;-77
2023/08/01 11:54:28;;;;;;;3.13;1.73;;;;;;;26.41;63.42;97539.25;5084650;28;20046;-77
2023/08/01 11:57:12;;;;;;;6.97;1.98;;;;;;;26.53;62.65;97539.25;5076393;28;20055;-75
2023/08/01 11:59:56;;;;;;;3.40;1.80;;;;;;;27.72;61.67;97544.56;5074485;28;20079;-77
2023/08/01 12:02:40;;;;;;;4.53;1.70;;;;;;;28.27;61.33;97554.78;5075555;28;20129;-76
2023/08/01 12:05:25;;;;;;;5.82;1.90;;;;;;;27.98;60.43;97567.53;5073763;28;20059;-75
2023/08/01 12:08:14;;;;;;;5.35;2.17;;;;;;;27.57;60.83;97551.47;5079953;28;20448;-77
2023/08/01 12:10:58;;;;;;;3.13;2.10;;;;;;;27.09;61.25;97548.59;5076665;28;20031;-76
2023/08/01 12:13:42;;;;;;;2.50;1.88;;;;;;;27.20;61.44;97552.38;5074790;28;20047;-76
2023/08/01 12:16:26;;;;;;;4.68;2.10;;;;;;;27.11;61.78;97554.41;5075889;28;20098;-76
2023/08/01 12:19:10;;;;;;;3.70;1.90;;;;;;;26.86;61.91;97549.09;5077491;28;20036;-75
2023/08/01 12:21:55;;;;;;;3.85;1.90;;;;;;;26.90;61.55;97557.28;5076137;28;20070;-77
2023/08/01 12:24:39;;;;;;;4.32;2.10;;;;;;;28.04;59.44;97554.59;5071252;28;20035;-77
2023/08/01 12:27:23;;;;;;;5.13;1.80;;;;;;;28.90;58.43;97563.94;5080112;28;20626;-76
2023/08/01 12:30:07;;;;;;;7.22;2.72;;;;;;;28.66;58.20;97546.03;5076921;28;20121;-76
2023/08/01 12:32:51;;;;;;;4.38;2.33;;;;;;;29.79;57.53;97557.97;5081148;28;20051;-76
2023/08/01 12:35:40;;;;;;;5.28;2.20;;;;;;;28.62;58.28;97550.56;5079833;28;20051;-77
2023/08/01 12:38:24;;;;;;;3.53;2.25;;;;;;;27.85;59.84;97569.53;5076566;28;20047;-77
2023/08/01 12:41:08;;;;;;;3.67;2.10;;;;;;;27.26;59.87;97570.97;5077075;28;20063;-77
2023/08/01 12:43:52;;;;;;;4.90;2.10;;;;;;;26.97;60.82;97562.88;5076832;28;20132;-77
2023/08/01 12:46:36;;;;;;;5.65;2.60;;;;;;;27.36;61.76;97562.44;5075376;28;20059;-77
2023/08/01 12:49:20;;;;;;;5.45;2.30;;;;;;;27.67;60.48;97566.34;5076325;28;20039;-77
2023/08/01 12:52:05;;;;;;;3.75;2.30;;;;;;;28.19;58.80;97567.31;5074903;28;20062;-77